createdAt,value
2023-04-26T00:02:25.055Z,8.60
2023-04-26T00:04:59.047Z,7.28
2023-04-26T00:07:26.780Z,10.18
2023-04-26T00:09:56.741Z,8.73
2023-04-26T00:12:25.906Z,8.38
2023-04-26T00:14:53.377Z,9.00
2023-04-26T00:17:20.691Z,8.55
2023-04-26T00:19:48.384Z,7.53
2023-04-26T00:22:15.790Z,8.27
2023-04-26T00:24:45.177Z,8.45
2023-04-26T00:27:13.517Z,9.60
2023-04-26T00:29:40.936Z,9.70
2023-04-26T00:32:09.265Z,8.02
2023-04-26T00:34:38.842Z,9.13
2023-04-26T00:37:06.641Z,9.35
2023-04-26T00:39:34.014Z,9.63
2023-04-26T00:42:02.472Z,9.02
2023-04-26T00:44:30.052Z,9.07
2023-04-26T00:46:58.458Z,8.85
2023-04-26T00:49:27.151Z,9.43
2023-04-26T00:51:57.129Z,9.43
2023-04-26T00:54:25.749Z,8.55
2023-04-26T00:56:54.663Z,10.23
2023-04-26T00:59:23.718Z,9.32
2023-04-26T01:01:51.802Z,9.88
2023-04-26T01:04:19.548Z,9.45
2023-04-26T01:06:50.872Z,10.63
2023-04-26T01:09:19.424Z,8.80
2023-04-26T01:11:47.181Z,9.88
2023-04-26T01:14:16.488Z,9.88
2023-04-26T01:16:46.884Z,10.45
2023-04-26T01:19:21.477Z,9.60
2023-04-26T01:21:49.941Z,8.90
2023-04-26T01:24:18.934Z,9.65
2023-04-26T01:26:50.207Z,11.40
2023-04-26T01:29:22.528Z,9.65
2023-04-26T01:31:51.492Z,11.10
2023-04-26T01:34:21.877Z,10.30
2023-04-26T01:36:49.404Z,10.13
2023-04-26T01:39:16.782Z,10.10
2023-04-26T01:41:44.177Z,9.95
2023-04-26T01:44:11.593Z,9.25
2023-04-26T01:46:39.258Z,10.88
2023-04-26T01:49:07.762Z,10.48
2023-04-26T01:51:35.066Z,12.70
2023-04-26T01:54:02.838Z,10.73
2023-04-26T01:56:32.377Z,11.10
2023-04-26T01:59:01.572Z,10.68
2023-04-26T02:01:31.491Z,9.70
2023-04-26T02:03:58.836Z,10.50
2023-04-26T02:06:26.708Z,11.02
2023-04-26T02:08:54.574Z,10.38
2023-04-26T02:11:23.184Z,9.27
2023-04-26T02:13:54.872Z,11.75
2023-04-26T02:16:22.547Z,9.95
2023-04-26T02:18:50.354Z,10.65
2023-04-26T02:21:19.657Z,10.52
2023-04-26T02:23:47.796Z,9.57
2023-04-26T02:26:15.304Z,10.48
2023-04-26T02:28:44.471Z,10.27
2023-04-26T02:31:11.895Z,12.32
2023-04-26T02:33:43.152Z,11.07
2023-04-26T02:36:12.662Z,9.60
2023-04-26T02:38:42.296Z,9.25
2023-04-26T02:41:13.574Z,10.55
2023-04-26T02:43:40.845Z,11.35
2023-04-26T02:46:08.663Z,9.93
2023-04-26T02:48:36.844Z,9.30
2023-04-26T02:51:14.299Z,9.93
2023-04-26T02:53:42.317Z,10.93
2023-04-26T02:56:11.451Z,10.30
2023-04-26T02:58:39.834Z,11.85
2023-04-26T03:01:08.812Z,10.80
2023-04-26T03:03:37.344Z,10.05
2023-04-26T03:06:08.402Z,12.20
2023-04-26T03:08:36.721Z,12.40
2023-04-26T03:11:04.173Z,11.27
2023-04-26T03:13:31.891Z,10.15
2023-04-26T03:16:01.945Z,11.18
2023-04-26T03:18:30.091Z,12.40
2023-04-26T03:20:57.486Z,10.38
2023-04-26T03:23:25.479Z,10.63
2023-04-26T03:26:01.876Z,11.68
2023-04-26T03:28:31.961Z,9.52
2023-04-26T03:30:59.263Z,10.02
2023-04-26T03:33:28.215Z,10.95
2023-04-26T03:35:57.364Z,10.68
2023-04-26T03:38:25.076Z,10.10
2023-04-26T03:40:52.935Z,12.48
2023-04-26T03:43:20.494Z,10.57
2023-04-26T03:45:50.241Z,11.15
2023-04-26T03:48:19.093Z,10.15
2023-04-26T03:50:46.979Z,10.50
2023-04-26T03:53:14.597Z,10.98
2023-04-26T03:55:42.727Z,10.27
2023-04-26T03:58:11.584Z,9.18
2023-04-26T04:00:40.060Z,9.43
2023-04-26T04:03:07.978Z,10.52
2023-04-26T04:05:35.881Z,11.85
2023-04-26T04:08:06.641Z,12.85
2023-04-26T04:10:33.970Z,10.60
2023-04-26T04:13:01.939Z,10.02
2023-04-26T04:15:30.923Z,10.07
2023-04-26T04:17:58.653Z,10.45
2023-04-26T04:20:25.940Z,11.32
2023-04-26T04:22:58.620Z,11.20
2023-04-26T04:25:26.447Z,11.18
2023-04-26T04:27:59.919Z,10.55
2023-04-26T04:30:27.666Z,11.25
2023-04-26T04:32:57.054Z,12.15
2023-04-26T04:35:29.238Z,12.15
2023-04-26T04:37:57.640Z,11.43
2023-04-26T04:40:28.023Z,11.73
2023-04-26T04:42:56.702Z,12.98
2023-04-26T04:45:28.580Z,11.18
2023-04-26T04:47:57.628Z,11.20
2023-04-26T04:50:28.203Z,12.23
2023-04-26T04:52:56.566Z,13.23
2023-04-26T04:55:24.007Z,13.38
2023-04-26T04:57:54.853Z,14.18
2023-04-26T05:00:23.798Z,12.88
2023-04-26T05:03:02.981Z,12.20
2023-04-26T05:05:31.985Z,13.60
2023-04-26T05:08:01.186Z,12.77
2023-04-26T05:10:29.978Z,11.93
2023-04-26T05:12:57.256Z,12.70
2023-04-26T05:15:36.259Z,13.27
2023-04-26T05:18:06.417Z,12.82
2023-04-26T05:20:35.006Z,14.70
2023-04-26T05:23:05.427Z,11.52
2023-04-26T05:25:37.287Z,11.43
2023-04-26T05:28:19.414Z,10.50
2023-04-26T05:31:16.967Z,12.15
2023-04-26T05:33:57.584Z,11.88
2023-04-26T05:36:30.704Z,10.43
2023-04-26T05:39:00.073Z,11.80
2023-04-26T05:41:30.750Z,13.10
2023-04-26T05:43:58.095Z,12.57
2023-04-26T05:46:27.558Z,11.50
2023-04-26T05:48:57.209Z,13.02
2023-04-26T05:51:28.657Z,12.55
2023-04-26T05:53:57.686Z,9.93
2023-04-26T05:56:27.283Z,11.75
2023-04-26T05:58:56.177Z,12.23
2023-04-26T06:01:24.597Z,11.13
2023-04-26T06:03:53.646Z,12.05
2023-04-26T06:06:25.496Z,11.15
2023-04-26T06:08:53.418Z,12.02
2023-04-26T06:11:23.080Z,11.93
2023-04-26T06:13:51.913Z,11.68
2023-04-26T06:16:19.673Z,13.38
2023-04-26T06:18:48.924Z,11.13
2023-04-26T06:21:19.986Z,10.45
2023-04-26T06:23:50.303Z,10.13
2023-04-26T06:26:21.561Z,10.68
2023-04-26T06:28:51.431Z,10.27
2023-04-26T06:31:20.110Z,10.77
2023-04-26T06:33:56.154Z,9.80
2023-04-26T06:36:27.792Z,9.10
2023-04-26T06:38:55.396Z,9.82
2023-04-26T06:41:24.688Z,10.27
2023-04-26T06:43:54.588Z,10.35
2023-04-26T06:46:22.523Z,11.13
2023-04-26T06:48:59.347Z,11.02
2023-04-26T06:51:31.748Z,10.98
2023-04-26T06:54:08.667Z,9.93
2023-04-26T06:56:37.916Z,10.93
2023-04-26T06:59:08.163Z,10.88
2023-04-26T07:01:37.035Z,9.43
2023-04-26T07:04:10.970Z,10.07
2023-04-26T07:06:42.470Z,10.43
2023-04-26T07:09:11.924Z,9.15
2023-04-26T07:11:41.287Z,8.85
2023-04-26T07:14:09.769Z,8.98
2023-04-26T07:16:37.315Z,9.18
2023-04-26T07:19:07.986Z,11.23
2023-04-26T07:21:39.450Z,5.25
2023-04-26T07:24:08.297Z,6.72
2023-04-26T07:26:37.472Z,5.95
2023-04-26T07:29:05.989Z,6.28
2023-04-26T07:31:42.734Z,6.35
2023-04-26T07:34:21.483Z,5.50
2023-04-26T07:36:52.503Z,5.25
2023-04-26T07:39:21.743Z,6.00
2023-04-26T07:41:49.190Z,5.22
2023-04-26T07:44:19.732Z,5.28
2023-04-26T07:46:59.281Z,5.93
2023-04-26T07:49:32.185Z,4.90
2023-04-26T07:52:02.499Z,5.15
2023-04-26T07:54:32.837Z,4.10
2023-04-26T07:57:02.670Z,4.35
2023-04-26T07:59:33.390Z,4.63
2023-04-26T08:02:05.705Z,5.32
2023-04-26T08:04:34.965Z,4.47
2023-04-26T08:07:05.789Z,4.28
2023-04-26T08:09:33.223Z,3.58
2023-04-26T08:12:01.757Z,4.45
2023-04-26T08:14:31.214Z,3.28
2023-04-26T08:16:59.085Z,4.28
2023-04-26T08:19:27.105Z,3.53
2023-04-26T08:21:54.740Z,3.22
2023-04-26T08:24:23.813Z,3.00
2023-04-26T08:26:51.597Z,3.90
2023-04-26T08:29:19.361Z,4.05
2023-04-26T08:31:57.878Z,3.83
2023-04-26T08:34:25.455Z,4.25
2023-04-26T08:36:53.467Z,3.97
2023-04-26T08:39:22.205Z,3.85
2023-04-26T08:41:55.674Z,2.58
2023-04-26T08:44:29.205Z,2.90
2023-04-26T08:47:27.018Z,3.13
2023-04-26T08:50:04.482Z,2.50
2023-04-26T08:52:36.826Z,3.17
2023-04-26T08:55:12.590Z,3.38
2023-04-26T08:57:49.015Z,4.05
2023-04-26T09:00:24.516Z,2.47
2023-04-26T09:02:55.174Z,3.67
2023-04-26T09:05:26.787Z,3.38
2023-04-26T09:08:02.569Z,3.28
2023-04-26T09:10:36.041Z,3.20
2023-04-26T09:13:05.402Z,3.58
2023-04-26T09:15:32.860Z,4.05
2023-04-26T09:18:25.220Z,3.97
2023-04-26T09:21:08.873Z,3.08
2023-04-26T09:23:57.997Z,3.58
2023-04-26T09:26:30.382Z,3.65
2023-04-26T09:29:21.168Z,3.53
2023-04-26T09:31:51.814Z,4.07
2023-04-26T09:34:27.855Z,2.95
2023-04-26T09:36:57.857Z,3.25
2023-04-26T09:39:42.067Z,2.80
2023-04-26T09:42:21.184Z,3.65
2023-04-26T09:44:48.988Z,4.20
2023-04-26T09:47:17.054Z,4.20
2023-04-26T09:49:52.629Z,3.20
2023-04-26T09:52:23.177Z,3.20
2023-04-26T09:54:56.928Z,3.30
2023-04-26T09:57:28.941Z,2.88
2023-04-26T10:00:14.930Z,2.70
2023-04-26T10:02:43.194Z,2.78
2023-04-26T10:05:19.205Z,3.13
2023-04-26T10:07:47.586Z,2.85
2023-04-26T10:10:22.549Z,2.65
2023-04-26T10:12:49.827Z,3.05
2023-04-26T10:15:19.530Z,3.17
2023-04-26T10:17:46.921Z,4.20
2023-04-26T10:20:18.712Z,3.38
2023-04-26T10:23:01.030Z,3.55
2023-04-26T10:29:06.141Z,3.40
2023-04-26T10:32:27.762Z,3.83
2023-04-26T10:35:13.569Z,4.38
2023-04-26T10:38:05.121Z,3.78
2023-04-26T10:40:42.739Z,3.45
2023-04-26T10:43:21.917Z,5.22
2023-04-26T10:45:50.634Z,4.65
2023-04-26T10:48:42.415Z,3.78
2023-04-26T10:51:14.667Z,4.32
2023-04-26T10:54:02.320Z,3.63
2023-04-26T10:56:52.672Z,3.63
2023-04-26T10:59:39.791Z,3.65
2023-04-26T11:02:15.192Z,3.20
2023-04-26T11:04:53.061Z,3.58
2023-04-26T11:08:05.429Z,3.85
2023-04-26T11:10:35.752Z,3.20
2023-04-26T11:13:06.414Z,4.00
2023-04-26T11:15:36.265Z,2.97
2023-04-26T11:18:13.196Z,3.28
2023-04-26T11:20:47.582Z,3.22
2023-04-26T11:23:19.254Z,3.53
2023-04-26T11:25:49.075Z,4.28
2023-04-26T11:28:29.410Z,3.45
2023-04-26T11:30:59.574Z,3.25
2023-04-26T11:33:32.133Z,2.85
2023-04-26T11:36:01.542Z,3.25
2023-04-26T11:38:31.685Z,3.70
2023-04-26T11:41:05.717Z,3.83
2023-04-26T11:43:53.561Z,3.83
2023-04-26T11:46:22.730Z,3.85
2023-04-26T11:48:53.058Z,3.60
2023-04-26T11:51:22.334Z,4.45
2023-04-26T11:53:53.594Z,3.72
2023-04-26T11:56:25.970Z,5.15
2023-04-26T11:58:58.285Z,3.63
2023-04-26T12:01:40.100Z,4.35
2023-04-26T12:04:13.810Z,4.40
2023-04-26T12:07:01.937Z,4.25
2023-04-26T12:09:40.356Z,3.95
2023-04-26T12:12:08.480Z,4.53
2023-04-26T12:14:40.340Z,4.05
2023-04-26T12:17:10.700Z,4.18
2023-04-26T12:19:42.264Z,4.10
2023-04-26T12:22:11.891Z,4.55
2023-04-26T12:24:43.153Z,4.85
2023-04-26T12:27:22.369Z,3.75
2023-04-26T12:29:49.812Z,4.40
2023-04-26T12:32:21.972Z,4.40
2023-04-26T12:34:50.151Z,4.35
2023-04-26T12:37:17.758Z,4.35
2023-04-26T12:39:52.157Z,4.47
2023-04-26T12:42:25.440Z,4.18
2023-04-26T12:44:53.664Z,4.85
2023-04-26T12:47:26.600Z,4.13
2023-04-26T12:50:20.234Z,4.78
2023-04-26T12:52:50.502Z,4.40
2023-04-26T12:55:18.944Z,5.22
2023-04-26T12:57:47.639Z,4.35
2023-04-26T13:00:18.632Z,5.90
2023-04-26T13:02:50.364Z,4.80
2023-04-26T13:05:17.780Z,4.57
2023-04-26T13:07:54.809Z,4.53
2023-04-26T13:10:22.951Z,3.95
2023-04-26T13:12:50.347Z,5.22
2023-04-26T13:15:23.438Z,5.43
2023-04-26T13:17:58.776Z,4.95
2023-04-26T13:23:12.957Z,4.97
2023-04-26T13:25:46.151Z,5.95
2023-04-26T13:28:18.419Z,4.30
2023-04-26T13:30:46.664Z,4.53
2023-04-26T13:33:15.565Z,4.70
2023-04-26T13:35:44.219Z,5.15
2023-04-26T13:38:13.127Z,4.68
2023-04-26T13:40:48.864Z,4.47
2023-04-26T13:43:25.672Z,4.22
2023-04-26T13:46:04.951Z,5.00
2023-04-26T13:48:35.666Z,4.80
2023-04-26T13:51:21.456Z,4.95
2023-04-26T13:53:49.368Z,5.18
2023-04-26T13:56:20.837Z,5.10
2023-04-26T13:58:49.056Z,4.03
2023-04-26T14:01:16.474Z,4.30
2023-04-26T14:03:45.881Z,5.53
2023-04-26T14:06:20.116Z,5.07
2023-04-26T14:08:47.572Z,4.80
2023-04-26T14:11:17.895Z,4.60
2023-04-26T14:13:56.083Z,5.28
2023-04-26T14:16:26.936Z,4.50
2023-04-26T14:18:54.802Z,5.60
2023-04-26T14:21:22.549Z,4.88
2023-04-26T14:23:57.833Z,4.28
2023-04-26T14:26:26.487Z,4.15
2023-04-26T14:28:53.806Z,5.22
2023-04-26T14:31:24.652Z,3.85
2023-04-26T14:33:55.002Z,4.22
2023-04-26T14:36:22.692Z,3.80
2023-04-26T14:38:51.418Z,4.00
2023-04-26T14:41:25.613Z,4.50
2023-04-26T14:43:56.125Z,5.53
2023-04-26T14:46:25.282Z,4.18
2023-04-26T14:48:57.794Z,4.32
2023-04-26T14:51:27.665Z,4.45
2023-04-26T14:53:55.323Z,5.93
2023-04-26T14:56:23.830Z,6.05
2023-04-26T14:58:51.286Z,5.43
2023-04-26T15:01:20.842Z,4.50
2023-04-26T15:03:52.339Z,5.00
2023-04-26T15:06:24.407Z,4.82
2023-04-26T15:08:54.464Z,5.15
2023-04-26T15:11:22.844Z,4.22
2023-04-26T15:13:55.875Z,4.72
2023-04-26T15:16:24.448Z,4.05
2023-04-26T15:18:52.689Z,4.78
2023-04-26T15:21:21.684Z,4.78
2023-04-26T15:23:49.736Z,5.45
2023-04-26T15:26:19.918Z,4.70
2023-04-26T15:28:56.718Z,5.30
2023-04-26T15:31:25.362Z,5.25
2023-04-26T15:34:00.544Z,4.72
2023-04-26T15:36:29.795Z,5.32
2023-04-26T15:39:00.589Z,5.18
2023-04-26T15:41:32.325Z,4.20
2023-04-26T15:44:01.556Z,3.63
2023-04-26T15:46:32.039Z,4.30
2023-04-26T15:49:01.843Z,5.00
2023-04-26T15:51:32.514Z,5.22
2023-04-26T15:54:04.906Z,5.47
2023-04-26T15:56:41.158Z,5.53
2023-04-26T15:59:18.574Z,4.45
2023-04-26T16:01:47.849Z,5.22
2023-04-26T16:04:25.176Z,4.88
2023-04-26T16:06:54.640Z,5.47
2023-04-26T16:09:32.105Z,4.72
2023-04-26T16:12:03.678Z,4.43
2023-04-26T16:14:35.475Z,4.15
2023-04-26T16:17:07.288Z,4.55
2023-04-26T16:19:36.195Z,4.90
2023-04-26T16:22:13.834Z,5.07
2023-04-26T16:27:16.620Z,5.55
2023-04-26T16:29:59.189Z,4.47
2023-04-26T16:32:27.013Z,5.55
2023-04-26T16:34:55.804Z,4.68
2023-04-26T16:37:26.585Z,4.65
2023-04-26T16:39:57.441Z,4.57
2023-04-26T16:42:25.861Z,3.78
2023-04-26T16:44:58.501Z,4.50
2023-04-26T16:47:27.127Z,4.00
2023-04-26T16:49:55.053Z,3.88
2023-04-26T16:52:22.710Z,2.95
2023-04-26T16:54:51.869Z,4.50
2023-04-26T16:57:23.682Z,3.60
2023-04-26T17:00:04.886Z,4.07
2023-04-26T17:02:35.162Z,3.78
2023-04-26T17:05:11.321Z,3.33
2023-04-26T17:07:50.053Z,3.83
2023-04-26T17:10:22.278Z,4.32
2023-04-26T17:12:50.878Z,3.17
2023-04-26T17:15:21.684Z,3.92
2023-04-26T17:17:53.401Z,4.65
2023-04-26T17:20:23.569Z,4.07
2023-04-26T17:22:54.656Z,4.20
2023-04-26T17:25:25.666Z,4.00
2023-04-26T17:27:56.280Z,3.30
2023-04-26T17:30:24.124Z,4.25
2023-04-26T17:32:51.572Z,5.22
2023-04-26T17:35:19.048Z,3.90
2023-04-26T17:37:50.367Z,3.72
2023-04-26T17:40:20.324Z,4.78
2023-04-26T17:42:50.402Z,9.23
2023-04-26T17:45:17.793Z,4.82
2023-04-26T17:47:46.106Z,5.20
2023-04-26T17:50:13.907Z,3.60
2023-04-26T17:52:45.359Z,4.15
2023-04-26T17:55:16.224Z,4.10
2023-04-26T17:57:44.115Z,4.80
2023-04-26T18:00:15.022Z,4.38
2023-04-26T18:02:44.620Z,3.40
2023-04-26T18:05:14.772Z,4.35
2023-04-26T18:07:43.503Z,4.78
2023-04-26T18:10:13.763Z,4.32
2023-04-26T18:12:41.286Z,3.92
2023-04-26T18:15:09.175Z,4.70
2023-04-26T18:17:36.667Z,4.20
2023-04-26T18:20:06.981Z,4.32
2023-04-26T18:22:34.373Z,3.95
2023-04-26T18:25:01.766Z,4.68
2023-04-26T18:27:31.459Z,4.45
2023-04-26T18:29:59.143Z,4.45
2023-04-26T18:32:27.636Z,3.65
2023-04-26T18:34:56.720Z,4.28
2023-04-26T18:37:25.648Z,3.80
2023-04-26T18:39:53.574Z,4.15
2023-04-26T18:42:21.026Z,4.10
2023-04-26T18:44:49.448Z,3.72
2023-04-26T18:47:17.252Z,4.28
2023-04-26T18:49:44.521Z,3.90
2023-04-26T18:52:15.872Z,4.57
2023-04-26T18:54:44.654Z,4.40
2023-04-26T18:57:12.383Z,6.07
2023-04-26T18:59:46.614Z,5.38
2023-04-26T19:02:15.323Z,5.47
2023-04-26T19:04:45.171Z,4.60
2023-04-26T19:07:16.372Z,4.45
2023-04-26T19:09:53.650Z,4.70
2023-04-26T19:12:21.430Z,4.95
2023-04-26T19:14:49.037Z,5.32
2023-04-26T19:17:20.281Z,5.57
2023-04-26T19:19:58.739Z,5.88
2023-04-26T19:22:26.361Z,6.15
2023-04-26T19:24:55.071Z,5.78
2023-04-26T19:27:26.141Z,5.45
2023-04-26T19:29:55.488Z,11.65
2023-04-26T19:32:24.073Z,5.07
2023-04-26T19:34:53.924Z,5.35
2023-04-26T19:37:22.818Z,4.28
2023-04-26T19:39:51.625Z,4.88
2023-04-26T19:42:24.984Z,5.32
2023-04-26T19:44:55.645Z,4.90
2023-04-26T19:47:32.385Z,4.53
2023-04-26T19:50:04.668Z,5.32
2023-04-26T19:52:32.533Z,4.28
2023-04-26T19:55:01.540Z,3.78
2023-04-26T19:57:35.630Z,3.85
2023-04-26T20:00:08.654Z,4.38
2023-04-26T20:02:42.520Z,4.25
2023-04-26T20:05:11.732Z,4.60
2023-04-26T20:07:42.200Z,5.05
2023-04-26T20:10:14.753Z,4.63
2023-04-26T20:12:42.050Z,5.32
2023-04-26T20:15:12.467Z,5.45
2023-04-26T20:17:50.420Z,5.50
2023-04-26T20:20:17.860Z,4.93
2023-04-26T20:22:47.047Z,5.10
2023-04-26T20:25:14.606Z,5.38
2023-04-26T20:27:42.265Z,4.40
2023-04-26T20:30:10.897Z,4.88
2023-04-26T20:32:38.755Z,5.25
2023-04-26T20:35:09.161Z,4.75
2023-04-26T20:37:36.727Z,4.50
2023-04-26T20:40:05.480Z,5.45
2023-04-26T20:42:32.741Z,5.20
2023-04-26T20:45:02.307Z,4.88
2023-04-26T20:47:30.308Z,4.50
2023-04-26T20:49:59.427Z,5.00
2023-04-26T20:52:26.721Z,4.90
2023-04-26T20:54:57.766Z,5.20
2023-04-26T20:57:25.968Z,4.85
2023-04-26T20:59:53.338Z,5.18
2023-04-26T21:02:24.401Z,5.10
2023-04-26T21:04:52.455Z,4.97
2023-04-26T21:07:19.796Z,5.72
2023-04-26T21:09:47.113Z,4.97
2023-04-26T21:12:14.614Z,4.57
2023-04-26T21:14:45.863Z,3.53
2023-04-26T21:17:13.781Z,5.05
2023-04-26T21:19:41.000Z,4.50
2023-04-26T21:22:11.842Z,5.10
2023-04-26T21:24:41.731Z,5.70
2023-04-26T21:27:10.753Z,5.20
2023-04-26T21:29:38.211Z,6.60
2023-04-26T21:32:06.081Z,5.18
2023-04-26T21:34:33.410Z,4.22
2023-04-26T21:37:00.903Z,5.18
2023-04-26T21:39:29.686Z,5.47
2023-04-26T21:41:57.159Z,5.13
2023-04-26T21:44:24.474Z,4.80
2023-04-26T21:46:56.120Z,5.00
2023-04-26T21:49:24.916Z,5.82
2023-04-26T21:51:52.413Z,5.72
2023-04-26T21:54:20.440Z,7.18
2023-04-26T21:56:47.701Z,5.97
2023-04-26T21:59:15.571Z,6.85
2023-04-26T22:01:44.930Z,6.80
2023-04-26T22:04:12.743Z,5.18
2023-04-26T22:06:40.638Z,5.55
2023-04-26T22:09:10.562Z,5.18
2023-04-26T22:11:40.905Z,5.63
2023-04-26T22:14:08.745Z,5.78
2023-04-26T22:16:37.329Z,4.80
2023-04-26T22:19:05.128Z,4.93
2023-04-26T22:21:33.091Z,4.68
2023-04-26T22:24:01.992Z,4.97
2023-04-26T22:26:29.567Z,5.53
2023-04-26T22:28:57.042Z,5.40
2023-04-26T22:31:26.321Z,5.57
2023-04-26T22:33:53.783Z,4.68
2023-04-26T22:36:21.432Z,5.90
2023-04-26T22:38:48.764Z,5.47
2023-04-26T22:41:16.337Z,5.20
2023-04-26T22:43:44.761Z,4.13
2023-04-26T22:46:12.986Z,5.32
2023-04-26T22:48:42.610Z,5.22
2023-04-26T22:51:12.094Z,5.38
2023-04-26T22:53:39.402Z,4.63
2023-04-26T22:56:13.652Z,5.60
2023-04-26T22:58:41.931Z,5.22
2023-04-26T23:01:12.015Z,5.57
2023-04-26T23:03:41.428Z,5.82
2023-04-26T23:06:08.921Z,5.43
2023-04-26T23:08:36.250Z,6.35
2023-04-26T23:11:10.550Z,5.80
2023-04-26T23:13:40.790Z,5.47
2023-04-26T23:16:08.662Z,4.88
2023-04-26T23:18:43.541Z,6.13
2023-04-26T23:21:15.695Z,5.80
2023-04-26T23:23:44.198Z,5.35
2023-04-26T23:26:13.079Z,4.63
2023-04-26T23:28:42.057Z,5.25
2023-04-26T23:31:09.495Z,4.95
2023-04-26T23:33:42.455Z,5.38
2023-04-26T23:36:10.677Z,5.07
2023-04-26T23:38:41.321Z,5.70
2023-04-26T23:41:09.843Z,5.65
2023-04-26T23:43:38.443Z,4.95
2023-04-26T23:46:09.584Z,5.50
2023-04-26T23:48:37.862Z,5.35
2023-04-26T23:51:06.076Z,5.82
2023-04-26T23:53:34.235Z,5.13
2023-04-26T23:56:01.492Z,5.30
2023-04-26T23:58:30.042Z,5.40
